sensor_id;sensor_type;location;lat;lon;timestamp;pressure;altitude;pressure_sealevel;temperature
66403;BMP180;53212;52.112;5.144;2023-06-26T00:03:16;101243.40;;;24.30
66403;BMP180;53212;52.112;5.144;2023-06-26T00:05:41;101241.80;;;24.34
66403;BMP180;53212;52.112;5.144;2023-06-26T00:08:17;101234.00;;;24.40
66403;BMP180;53212;52.112;5.144;2023-06-26T00:10:42;101234.20;;;24.40
66403;BMP180;53212;52.112;5.144;2023-06-26T00:13:08;101230.40;;;24.38
66403;BMP180;53212;52.112;5.144;2023-06-26T00:15:33;101227.40;;;24.30
66403;BMP180;53212;52.112;5.144;2023-06-26T00:17:59;101223.80;;;24.30
66403;BMP180;53212;52.112;5.144;2023-06-26T00:20:24;101226.60;;;24.22
66403;BMP180;53212;52.112;5.144;2023-06-26T00:22:50;101222.80;;;24.20
66403;BMP180;53212;52.112;5.144;2023-06-26T00:25:16;101219.80;;;24.16
66403;BMP180;53212;52.112;5.144;2023-06-26T00:27:41;101218.80;;;24.10
66403;BMP180;53212;52.112;5.144;2023-06-26T00:30:08;101216.80;;;24.06
66403;BMP180;53212;52.112;5.144;2023-06-26T00:32:34;101213.40;;;24.00
66403;BMP180;53212;52.112;5.144;2023-06-26T00:34:59;101212.60;;;24.00
66403;BMP180;53212;52.112;5.144;2023-06-26T00:37:25;101206.20;;;24.00
66403;BMP180;53212;52.112;5.144;2023-06-26T00:39:50;101205.20;;;23.90
66403;BMP180;53212;52.112;5.144;2023-06-26T00:42:16;101205.80;;;23.90
66403;BMP180;53212;52.112;5.144;2023-06-26T00:44:42;101205.20;;;23.90
66403;BMP180;53212;52.112;5.144;2023-06-26T00:47:08;101214.00;;;23.90
66403;BMP180;53212;52.112;5.144;2023-06-26T00:49:34;101217.40;;;23.76
66403;BMP180;53212;52.112;5.144;2023-06-26T00:52:00;101225.40;;;23.64
66403;BMP180;53212;52.112;5.144;2023-06-26T00:54:25;101235.40;;;23.60
66403;BMP180;53212;52.112;5.144;2023-06-26T00:56:51;101241.80;;;23.50
66403;BMP180;53212;52.112;5.144;2023-06-26T00:59:16;101244.00;;;23.50
66403;BMP180;53212;52.112;5.144;2023-06-26T01:01:42;101242.80;;;23.50
66403;BMP180;53212;52.112;5.144;2023-06-26T01:04:08;101241.80;;;23.50
66403;BMP180;53212;52.112;5.144;2023-06-26T01:06:45;101245.60;;;23.42
66403;BMP180;53212;52.112;5.144;2023-06-26T01:09:18;101244.20;;;23.40
66403;BMP180;53212;52.112;5.144;2023-06-26T01:11:45;101244.40;;;23.22
66403;BMP180;53212;52.112;5.144;2023-06-26T01:14:10;101249.60;;;23.10
66403;BMP180;53212;52.112;5.144;2023-06-26T01:16:38;101255.00;;;23.00
66403;BMP180;53212;52.112;5.144;2023-06-26T01:19:10;101260.20;;;22.90
66403;BMP180;53212;52.112;5.144;2023-06-26T01:21:43;101260.20;;;22.80
66403;BMP180;53212;52.112;5.144;2023-06-26T01:24:16;101265.40;;;22.80
66403;BMP180;53212;52.112;5.144;2023-06-26T01:26:48;101271.80;;;22.70
66403;BMP180;53212;52.112;5.144;2023-06-26T01:29:16;101269.80;;;22.60
66403;BMP180;53212;52.112;5.144;2023-06-26T01:31:43;101274.60;;;22.58
66403;BMP180;53212;52.112;5.144;2023-06-26T01:34:11;101271.40;;;22.50
66403;BMP180;53212;52.112;5.144;2023-06-26T01:36:38;101271.20;;;22.50
66403;BMP180;53212;52.112;5.144;2023-06-26T01:39:03;101266.60;;;22.50
66403;BMP180;53212;52.112;5.144;2023-06-26T01:41:28;101272.20;;;22.40
66403;BMP180;53212;52.112;5.144;2023-06-26T01:47:03;101268.80;;;22.20
66403;BMP180;53212;52.112;5.144;2023-06-26T01:50:05;101268.80;;;22.20
66403;BMP180;53212;52.112;5.144;2023-06-26T01:52:52;101272.20;;;22.20
66403;BMP180;53212;52.112;5.144;2023-06-26T01:56:12;101264.80;;;22.10
66403;BMP180;53212;52.112;5.144;2023-06-26T01:58:43;101272.80;;;22.00
66403;BMP180;53212;52.112;5.144;2023-06-26T02:01:11;101275.40;;;21.90
66403;BMP180;53212;52.112;5.144;2023-06-26T02:03:37;101275.00;;;21.82
66403;BMP180;53212;52.112;5.144;2023-06-26T02:06:02;101267.00;;;21.80
66403;BMP180;53212;52.112;5.144;2023-06-26T02:08:28;101270.60;;;21.78
66403;BMP180;53212;52.112;5.144;2023-06-26T02:10:53;101269.00;;;21.60
66403;BMP180;53212;52.112;5.144;2023-06-26T02:13:19;101270.40;;;21.50
66403;BMP180;53212;52.112;5.144;2023-06-26T02:15:44;101271.60;;;21.40
66403;BMP180;53212;52.112;5.144;2023-06-26T02:18:10;101284.20;;;21.40
66403;BMP180;53212;52.112;5.144;2023-06-26T02:20:35;101284.00;;;21.40
66403;BMP180;53212;52.112;5.144;2023-06-26T02:23:01;101278.80;;;21.40
66403;BMP180;53212;52.112;5.144;2023-06-26T02:25:26;101278.80;;;21.30
66403;BMP180;53212;52.112;5.144;2023-06-26T02:27:52;101287.20;;;21.30
66403;BMP180;53212;52.112;5.144;2023-06-26T02:30:17;101288.80;;;21.24
66403;BMP180;53212;52.112;5.144;2023-06-26T02:32:43;101289.40;;;21.30
66403;BMP180;53212;52.112;5.144;2023-06-26T02:35:08;101285.20;;;21.40
66403;BMP180;53212;52.112;5.144;2023-06-26T02:37:34;101283.20;;;21.30
66403;BMP180;53212;52.112;5.144;2023-06-26T02:39:59;101286.60;;;21.30
66403;BMP180;53212;52.112;5.144;2023-06-26T02:42:25;101284.00;;;21.30
66403;BMP180;53212;52.112;5.144;2023-06-26T02:44:50;101290.60;;;21.26
66403;BMP180;53212;52.112;5.144;2023-06-26T02:47:16;101290.00;;;21.20
66403;BMP180;53212;52.112;5.144;2023-06-26T02:49:41;101284.00;;;21.20
66403;BMP180;53212;52.112;5.144;2023-06-26T02:52:06;101286.80;;;21.26
66403;BMP180;53212;52.112;5.144;2023-06-26T02:54:32;101296.00;;;21.20
66403;BMP180;53212;52.112;5.144;2023-06-26T02:56:58;101296.80;;;21.20
66403;BMP180;53212;52.112;5.144;2023-06-26T02:59:24;101305.20;;;21.16
66403;BMP180;53212;52.112;5.144;2023-06-26T03:01:50;101307.60;;;21.10
66403;BMP180;53212;52.112;5.144;2023-06-26T03:04:15;101299.00;;;21.08
66403;BMP180;53212;52.112;5.144;2023-06-26T03:06:43;101299.40;;;21.00
66403;BMP180;53212;52.112;5.144;2023-06-26T03:09:08;101302.80;;;21.00
66403;BMP180;53212;52.112;5.144;2023-06-26T03:11:34;101299.40;;;20.90
66403;BMP180;53212;52.112;5.144;2023-06-26T03:13:59;101304.80;;;20.90
66403;BMP180;53212;52.112;5.144;2023-06-26T03:16:25;101315.40;;;20.80
66403;BMP180;53212;52.112;5.144;2023-06-26T03:18:50;101306.80;;;20.80
66403;BMP180;53212;52.112;5.144;2023-06-26T03:21:16;101299.60;;;20.70
66403;BMP180;53212;52.112;5.144;2023-06-26T03:23:42;101303.80;;;20.60
66403;BMP180;53212;52.112;5.144;2023-06-26T03:26:07;101303.00;;;20.60
66403;BMP180;53212;52.112;5.144;2023-06-26T03:28:33;101314.00;;;20.58
66403;BMP180;53212;52.112;5.144;2023-06-26T03:30:58;101315.40;;;20.40
66403;BMP180;53212;52.112;5.144;2023-06-26T03:33:24;101313.60;;;20.40
66403;BMP180;53212;52.112;5.144;2023-06-26T03:35:49;101325.80;;;20.34
66403;BMP180;53212;52.112;5.144;2023-06-26T03:38:15;101323.20;;;20.30
66403;BMP180;53212;52.112;5.144;2023-06-26T03:40:40;101328.00;;;20.30
66403;BMP180;53212;52.112;5.144;2023-06-26T03:43:06;101335.20;;;20.20
66403;BMP180;53212;52.112;5.144;2023-06-26T03:45:31;101336.40;;;20.20
66403;BMP180;53212;52.112;5.144;2023-06-26T03:47:57;101329.00;;;20.20
66403;BMP180;53212;52.112;5.144;2023-06-26T03:50:22;101332.60;;;20.20
66403;BMP180;53212;52.112;5.144;2023-06-26T03:52:47;101340.80;;;20.20
66403;BMP180;53212;52.112;5.144;2023-06-26T03:55:15;101340.40;;;20.20
66403;BMP180;53212;52.112;5.144;2023-06-26T03:57:40;101347.20;;;20.20
66403;BMP180;53212;52.112;5.144;2023-06-26T04:00:06;101349.60;;;20.10
66403;BMP180;53212;52.112;5.144;2023-06-26T04:02:36;101345.80;;;20.10
66403;BMP180;53212;52.112;5.144;2023-06-26T04:05:02;101350.20;;;20.00
66403;BMP180;53212;52.112;5.144;2023-06-26T04:07:29;101348.60;;;19.90
66403;BMP180;53212;52.112;5.144;2023-06-26T04:09:54;101352.60;;;19.90
66403;BMP180;53212;52.112;5.144;2023-06-26T04:12:20;101347.80;;;20.00
66403;BMP180;53212;52.112;5.144;2023-06-26T04:14:45;101354.20;;;19.94
66403;BMP180;53212;52.112;5.144;2023-06-26T04:17:11;101361.00;;;20.00
66403;BMP180;53212;52.112;5.144;2023-06-26T04:19:36;101363.00;;;19.98
66403;BMP180;53212;52.112;5.144;2023-06-26T04:22:02;101361.60;;;19.98
66403;BMP180;53212;52.112;5.144;2023-06-26T04:24:28;101364.20;;;19.98
66403;BMP180;53212;52.112;5.144;2023-06-26T04:26:53;101365.40;;;20.00
66403;BMP180;53212;52.112;5.144;2023-06-26T04:29:23;101366.00;;;20.00
66403;BMP180;53212;52.112;5.144;2023-06-26T04:31:51;101374.40;;;20.00
66403;BMP180;53212;52.112;5.144;2023-06-26T04:34:17;101374.60;;;20.00
66403;BMP180;53212;52.112;5.144;2023-06-26T04:36:42;101384.20;;;19.98
66403;BMP180;53212;52.112;5.144;2023-06-26T04:39:11;101389.60;;;20.00
66403;BMP180;53212;52.112;5.144;2023-06-26T04:41:37;101392.80;;;20.00
66403;BMP180;53212;52.112;5.144;2023-06-26T04:44:03;101394.20;;;20.10
66403;BMP180;53212;52.112;5.144;2023-06-26T04:46:28;101397.20;;;20.20
66403;BMP180;53212;52.112;5.144;2023-06-26T04:48:54;101404.00;;;20.20
66403;BMP180;53212;52.112;5.144;2023-06-26T04:51:19;101411.80;;;20.18
66403;BMP180;53212;52.112;5.144;2023-06-26T04:53:46;101407.40;;;20.10
66403;BMP180;53212;52.112;5.144;2023-06-26T04:56:11;101409.20;;;20.00
66403;BMP180;53212;52.112;5.144;2023-06-26T04:58:37;101412.60;;;19.96
66403;BMP180;53212;52.112;5.144;2023-06-26T05:01:02;101411.60;;;19.90
66403;BMP180;53212;52.112;5.144;2023-06-26T05:03:27;101409.40;;;19.90
66403;BMP180;53212;52.112;5.144;2023-06-26T05:05:53;101417.00;;;19.98
66403;BMP180;53212;52.112;5.144;2023-06-26T05:08:24;101413.20;;;20.00
66403;BMP180;53212;52.112;5.144;2023-06-26T05:10:51;101414.60;;;20.00
66403;BMP180;53212;52.112;5.144;2023-06-26T05:13:19;101419.00;;;20.10
66403;BMP180;53212;52.112;5.144;2023-06-26T05:15:45;101419.40;;;20.12
66403;BMP180;53212;52.112;5.144;2023-06-26T05:18:11;101422.40;;;20.22
66403;BMP180;53212;52.112;5.144;2023-06-26T05:20:38;101425.60;;;20.42
66403;BMP180;53212;52.112;5.144;2023-06-26T05:23:04;101425.80;;;20.76
66403;BMP180;53212;52.112;5.144;2023-06-26T05:25:31;101423.80;;;21.00
66403;BMP180;53212;52.112;5.144;2023-06-26T05:27:58;101425.80;;;21.10
66403;BMP180;53212;52.112;5.144;2023-06-26T05:30:25;101430.60;;;21.36
66403;BMP180;53212;52.112;5.144;2023-06-26T05:32:52;101432.60;;;21.64
66403;BMP180;53212;52.112;5.144;2023-06-26T05:35:20;101430.40;;;21.96
66403;BMP180;53212;52.112;5.144;2023-06-26T05:37:50;101439.80;;;22.48
66403;BMP180;53212;52.112;5.144;2023-06-26T05:40:17;101439.40;;;22.80
66403;BMP180;53212;52.112;5.144;2023-06-26T05:42:44;101443.60;;;23.20
66403;BMP180;53212;52.112;5.144;2023-06-26T05:45:10;101443.80;;;23.64
66403;BMP180;53212;52.112;5.144;2023-06-26T05:47:36;101445.20;;;24.14
66403;BMP180;53212;52.112;5.144;2023-06-26T05:50:03;101455.00;;;24.44
66403;BMP180;53212;52.112;5.144;2023-06-26T05:52:29;101460.40;;;24.54
66403;BMP180;53212;52.112;5.144;2023-06-26T05:54:58;101465.00;;;24.74
66403;BMP180;53212;52.112;5.144;2023-06-26T05:57:27;101468.20;;;25.16
66403;BMP180;53212;52.112;5.144;2023-06-26T05:59:53;101473.20;;;25.24
66403;BMP180;53212;52.112;5.144;2023-06-26T06:02:19;101484.60;;;25.56
66403;BMP180;53212;52.112;5.144;2023-06-26T06:04:44;101480.80;;;25.90
66403;BMP180;53212;52.112;5.144;2023-06-26T06:07:10;101486.80;;;26.30
66403;BMP180;53212;52.112;5.144;2023-06-26T06:09:35;101487.40;;;26.40
66403;BMP180;53212;52.112;5.144;2023-06-26T06:12:01;101494.40;;;26.36
66403;BMP180;53212;52.112;5.144;2023-06-26T06:14:30;101504.80;;;26.40
66403;BMP180;53212;52.112;5.144;2023-06-26T06:16:55;101506.80;;;26.00
66403;BMP180;53212;52.112;5.144;2023-06-26T06:19:21;101500.00;;;25.20
66403;BMP180;53212;52.112;5.144;2023-06-26T06:21:47;101516.60;;;25.10
66403;BMP180;53212;52.112;5.144;2023-06-26T06:24:12;101522.00;;;24.60
66403;BMP180;53212;52.112;5.144;2023-06-26T06:26:37;101519.60;;;24.20
66403;BMP180;53212;52.112;5.144;2023-06-26T06:29:03;101525.00;;;24.00
66403;BMP180;53212;52.112;5.144;2023-06-26T06:31:28;101537.40;;;23.60
66403;BMP180;53212;52.112;5.144;2023-06-26T06:33:55;101541.80;;;23.80
66403;BMP180;53212;52.112;5.144;2023-06-26T06:36:20;101542.80;;;24.30
66403;BMP180;53212;52.112;5.144;2023-06-26T06:38:46;101544.40;;;24.10
66403;BMP180;53212;52.112;5.144;2023-06-26T06:41:11;101548.20;;;23.90
66403;BMP180;53212;52.112;5.144;2023-06-26T06:43:38;101550.40;;;23.70
66403;BMP180;53212;52.112;5.144;2023-06-26T06:46:04;101559.80;;;23.70
66403;BMP180;53212;52.112;5.144;2023-06-26T06:48:31;101567.40;;;23.16
66403;BMP180;53212;52.112;5.144;2023-06-26T06:50:56;101572.60;;;22.42
66403;BMP180;53212;52.112;5.144;2023-06-26T06:53:22;101562.60;;;22.00
66403;BMP180;53212;52.112;5.144;2023-06-26T06:55:51;101562.40;;;22.48
66403;BMP180;53212;52.112;5.144;2023-06-26T06:58:17;101563.20;;;23.18
66403;BMP180;53212;52.112;5.144;2023-06-26T07:00:45;101580.40;;;23.74
66403;BMP180;53212;52.112;5.144;2023-06-26T07:03:10;101581.20;;;24.30
66403;BMP180;53212;52.112;5.144;2023-06-26T07:05:37;101572.40;;;24.46
66403;BMP180;53212;52.112;5.144;2023-06-26T07:08:03;101579.20;;;24.20
66403;BMP180;53212;52.112;5.144;2023-06-26T07:10:29;101576.80;;;24.52
66403;BMP180;53212;52.112;5.144;2023-06-26T07:12:55;101597.00;;;24.34
66403;BMP180;53212;52.112;5.144;2023-06-26T07:15:20;101586.60;;;24.22
66403;BMP180;53212;52.112;5.144;2023-06-26T07:17:46;101595.80;;;24.50
66403;BMP180;53212;52.112;5.144;2023-06-26T07:20:11;101596.20;;;24.20
66403;BMP180;53212;52.112;5.144;2023-06-26T07:22:41;101592.00;;;24.40
66403;BMP180;53212;52.112;5.144;2023-06-26T07:25:08;101588.60;;;24.56
66403;BMP180;53212;52.112;5.144;2023-06-26T07:27:40;101599.80;;;24.82
66403;BMP180;53212;52.112;5.144;2023-06-26T07:30:07;101597.40;;;25.02
66403;BMP180;53212;52.112;5.144;2023-06-26T07:32:36;101601.20;;;25.04
66403;BMP180;53212;52.112;5.144;2023-06-26T07:35:02;101611.20;;;25.08
66403;BMP180;53212;52.112;5.144;2023-06-26T07:37:28;101609.00;;;25.10
66403;BMP180;53212;52.112;5.144;2023-06-26T07:39:54;101604.00;;;25.18
66403;BMP180;53212;52.112;5.144;2023-06-26T07:42:19;101612.60;;;25.20
66403;BMP180;53212;52.112;5.144;2023-06-26T07:44:45;101618.60;;;25.20
66403;BMP180;53212;52.112;5.144;2023-06-26T07:47:11;101626.20;;;25.20
66403;BMP180;53212;52.112;5.144;2023-06-26T07:49:37;101628.20;;;24.98
66403;BMP180;53212;52.112;5.144;2023-06-26T07:52:05;101631.40;;;24.60
66403;BMP180;53212;52.112;5.144;2023-06-26T07:54:31;101633.40;;;24.10
66403;BMP180;53212;52.112;5.144;2023-06-26T07:57:00;101639.60;;;23.90
66403;BMP180;53212;52.112;5.144;2023-06-26T07:59:27;101642.80;;;24.22
66403;BMP180;53212;52.112;5.144;2023-06-26T08:01:56;101634.40;;;24.50
66403;BMP180;53212;52.112;5.144;2023-06-26T08:04:24;101642.80;;;24.38
66403;BMP180;53212;52.112;5.144;2023-06-26T08:06:56;101642.20;;;23.98
66403;BMP180;53212;52.112;5.144;2023-06-26T08:09:26;101641.00;;;24.10
66403;BMP180;53212;52.112;5.144;2023-06-26T08:11:52;101638.60;;;23.76
66403;BMP180;53212;52.112;5.144;2023-06-26T08:14:18;101654.00;;;23.84
66403;BMP180;53212;52.112;5.144;2023-06-26T08:16:44;101646.80;;;23.60
66403;BMP180;53212;52.112;5.144;2023-06-26T08:19:13;101650.80;;;23.72
66403;BMP180;53212;52.112;5.144;2023-06-26T08:21:44;101660.20;;;24.00
66403;BMP180;53212;52.112;5.144;2023-06-26T08:24:10;101668.60;;;24.02
66403;BMP180;53212;52.112;5.144;2023-06-26T08:26:38;101661.00;;;24.20
66403;BMP180;53212;52.112;5.144;2023-06-26T08:29:04;101666.60;;;23.80
66403;BMP180;53212;52.112;5.144;2023-06-26T08:31:34;101664.00;;;23.60
66403;BMP180;53212;52.112;5.144;2023-06-26T08:34:02;101668.00;;;23.80
66403;BMP180;53212;52.112;5.144;2023-06-26T08:36:28;101671.00;;;23.78
66403;BMP180;53212;52.112;5.144;2023-06-26T08:38:54;101669.20;;;23.70
66403;BMP180;53212;52.112;5.144;2023-06-26T08:41:19;101679.40;;;23.90
66403;BMP180;53212;52.112;5.144;2023-06-26T08:43:45;101671.00;;;23.88
66403;BMP180;53212;52.112;5.144;2023-06-26T08:46:11;101682.20;;;23.86
66403;BMP180;53212;52.112;5.144;2023-06-26T08:48:37;101678.00;;;23.90
66403;BMP180;53212;52.112;5.144;2023-06-26T08:51:12;101677.20;;;24.14
66403;BMP180;53212;52.112;5.144;2023-06-26T08:53:55;101683.00;;;24.42
66403;BMP180;53212;52.112;5.144;2023-06-26T08:56:22;101684.00;;;24.04
66403;BMP180;53212;52.112;5.144;2023-06-26T08:58:47;101692.00;;;23.74
66403;BMP180;53212;52.112;5.144;2023-06-26T09:01:13;101702.20;;;23.32
66403;BMP180;53212;52.112;5.144;2023-06-26T09:03:39;101697.60;;;22.90
66403;BMP180;53212;52.112;5.144;2023-06-26T09:06:07;101703.60;;;22.90
66403;BMP180;53212;52.112;5.144;2023-06-26T09:08:33;101702.80;;;22.90
66403;BMP180;53212;52.112;5.144;2023-06-26T09:10:58;101705.00;;;22.80
66403;BMP180;53212;52.112;5.144;2023-06-26T09:13:24;101701.40;;;23.00
66403;BMP180;53212;52.112;5.144;2023-06-26T09:15:52;101720.00;;;23.22
66403;BMP180;53212;52.112;5.144;2023-06-26T09:18:18;101719.00;;;23.02
66403;BMP180;53212;52.112;5.144;2023-06-26T09:20:48;101711.40;;;23.04
66403;BMP180;53212;52.112;5.144;2023-06-26T09:23:14;101720.20;;;23.00
66403;BMP180;53212;52.112;5.144;2023-06-26T09:25:40;101730.20;;;22.86
66403;BMP180;53212;52.112;5.144;2023-06-26T09:28:06;101738.00;;;22.50
66403;BMP180;53212;52.112;5.144;2023-06-26T09:30:32;101730.60;;;22.40
66403;BMP180;53212;52.112;5.144;2023-06-26T09:33:20;101730.00;;;22.60
66403;BMP180;53212;52.112;5.144;2023-06-26T09:35:47;101736.40;;;22.80
66403;BMP180;53212;52.112;5.144;2023-06-26T09:38:13;101725.80;;;22.90
66403;BMP180;53212;52.112;5.144;2023-06-26T09:40:40;101728.60;;;23.10
66403;BMP180;53212;52.112;5.144;2023-06-26T09:43:07;101738.60;;;23.12
66403;BMP180;53212;52.112;5.144;2023-06-26T09:45:34;101742.80;;;23.10
66403;BMP180;53212;52.112;5.144;2023-06-26T09:48:05;101752.00;;;22.90
66403;BMP180;53212;52.112;5.144;2023-06-26T09:50:34;101749.00;;;22.82
66403;BMP180;53212;52.112;5.144;2023-06-26T09:53:13;101757.80;;;23.00
66403;BMP180;53212;52.112;5.144;2023-06-26T09:55:40;101750.40;;;23.00
66403;BMP180;53212;52.112;5.144;2023-06-26T09:58:11;101747.40;;;22.80
66403;BMP180;53212;52.112;5.144;2023-06-26T10:00:41;101757.80;;;22.70
66403;BMP180;53212;52.112;5.144;2023-06-26T10:03:07;101760.80;;;22.90
66403;BMP180;53212;52.112;5.144;2023-06-26T10:05:33;101770.20;;;23.04
66403;BMP180;53212;52.112;5.144;2023-06-26T10:07:59;101765.80;;;23.10
66403;BMP180;53212;52.112;5.144;2023-06-26T10:10:25;101772.40;;;23.26
66403;BMP180;53212;52.112;5.144;2023-06-26T10:12:59;101787.00;;;23.40
66403;BMP180;53212;52.112;5.144;2023-06-26T10:15:25;101778.00;;;23.22
66403;BMP180;53212;52.112;5.144;2023-06-26T10:17:51;101787.60;;;23.18
66403;BMP180;53212;52.112;5.144;2023-06-26T10:20:19;101789.80;;;23.40
66403;BMP180;53212;52.112;5.144;2023-06-26T10:22:46;101791.20;;;23.60
66403;BMP180;53212;52.112;5.144;2023-06-26T10:25:18;101800.40;;;23.42
66403;BMP180;53212;52.112;5.144;2023-06-26T10:27:58;101796.00;;;23.20
66403;BMP180;53212;52.112;5.144;2023-06-26T10:30:30;101810.80;;;23.30
66403;BMP180;53212;52.112;5.144;2023-06-26T10:32:57;101806.80;;;23.20
66403;BMP180;53212;52.112;5.144;2023-06-26T10:35:24;101801.20;;;23.40
66403;BMP180;53212;52.112;5.144;2023-06-26T10:37:50;101798.20;;;23.70
66403;BMP180;53212;52.112;5.144;2023-06-26T10:40:26;101806.60;;;23.70
66403;BMP180;53212;52.112;5.144;2023-06-26T10:43:05;101795.20;;;23.64
66403;BMP180;53212;52.112;5.144;2023-06-26T10:45:33;101803.20;;;23.60
66403;BMP180;53212;52.112;5.144;2023-06-26T10:47:58;101802.80;;;23.60
66403;BMP180;53212;52.112;5.144;2023-06-26T10:50:27;101801.20;;;23.82
66403;BMP180;53212;52.112;5.144;2023-06-26T10:56:05;101811.80;;;23.80
66403;BMP180;53212;52.112;5.144;2023-06-26T10:58:40;101816.40;;;23.90
66403;BMP180;53212;52.112;5.144;2023-06-26T11:03:44;101816.20;;;23.90
66403;BMP180;53212;52.112;5.144;2023-06-26T11:06:14;101821.20;;;24.06
66403;BMP180;53212;52.112;5.144;2023-06-26T11:08:51;101828.80;;;24.38
66403;BMP180;53212;52.112;5.144;2023-06-26T11:11:20;101818.20;;;24.40
66403;BMP180;53212;52.112;5.144;2023-06-26T11:13:47;101821.00;;;24.38
66403;BMP180;53212;52.112;5.144;2023-06-26T11:16:14;101823.20;;;24.40
66403;BMP180;53212;52.112;5.144;2023-06-26T11:18:44;101825.80;;;24.60
66403;BMP180;53212;52.112;5.144;2023-06-26T11:21:12;101830.80;;;24.80
66403;BMP180;53212;52.112;5.144;2023-06-26T11:23:40;101849.20;;;25.08
66403;BMP180;53212;52.112;5.144;2023-06-26T11:26:17;101844.60;;;24.86
66403;BMP180;53212;52.112;5.144;2023-06-26T11:28:54;101837.40;;;24.84
66403;BMP180;53212;52.112;5.144;2023-06-26T11:31:34;101841.00;;;24.40
66403;BMP180;53212;52.112;5.144;2023-06-26T11:34:03;101843.40;;;24.24
66403;BMP180;53212;52.112;5.144;2023-06-26T11:36:31;101846.60;;;24.10
66403;BMP180;53212;52.112;5.144;2023-06-26T11:39:01;101852.20;;;24.20
66403;BMP180;53212;52.112;5.144;2023-06-26T11:41:32;101841.80;;;24.24
66403;BMP180;53212;52.112;5.144;2023-06-26T11:44:09;101856.60;;;24.58
66403;BMP180;53212;52.112;5.144;2023-06-26T11:46:36;101870.00;;;24.80
66403;BMP180;53212;52.112;5.144;2023-06-26T11:49:06;101871.20;;;24.98
66403;BMP180;53212;52.112;5.144;2023-06-26T11:51:33;101876.60;;;24.90
66403;BMP180;53212;52.112;5.144;2023-06-26T11:54:01;101884.00;;;25.06
66403;BMP180;53212;52.112;5.144;2023-06-26T11:56:30;101887.00;;;24.96
66403;BMP180;53212;52.112;5.144;2023-06-26T11:59:07;101889.00;;;25.00
66403;BMP180;53212;52.112;5.144;2023-06-26T12:01:43;101904.00;;;24.64
66403;BMP180;53212;52.112;5.144;2023-06-26T12:04:17;101908.60;;;24.42
66403;BMP180;53212;52.112;5.144;2023-06-26T12:06:50;101906.40;;;24.20
66403;BMP180;53212;52.112;5.144;2023-06-26T12:09:18;101913.60;;;24.30
66403;BMP180;53212;52.112;5.144;2023-06-26T12:11:47;101911.60;;;24.30
66403;BMP180;53212;52.112;5.144;2023-06-26T12:14:14;101921.00;;;24.20
66403;BMP180;53212;52.112;5.144;2023-06-26T12:16:40;101925.60;;;24.38
66403;BMP180;53212;52.112;5.144;2023-06-26T12:19:07;101917.40;;;24.50
66403;BMP180;53212;52.112;5.144;2023-06-26T12:23:59;101914.80;;;24.54
66403;BMP180;53212;52.112;5.144;2023-06-26T12:26:26;101917.40;;;24.66
66403;BMP180;53212;52.112;5.144;2023-06-26T12:28:51;101914.40;;;24.90
66403;BMP180;53212;52.112;5.144;2023-06-26T12:31:20;101918.60;;;25.10
66403;BMP180;53212;52.112;5.144;2023-06-26T12:33:47;101917.00;;;25.10
66403;BMP180;53212;52.112;5.144;2023-06-26T12:36:13;101927.60;;;25.14
66403;BMP180;53212;52.112;5.144;2023-06-26T12:38:40;101924.20;;;25.28
66403;BMP180;53212;52.112;5.144;2023-06-26T12:41:13;101939.00;;;25.20
66403;BMP180;53212;52.112;5.144;2023-06-26T12:43:42;101939.80;;;24.80
66403;BMP180;53212;52.112;5.144;2023-06-26T12:46:08;101961.40;;;24.78
66403;BMP180;53212;52.112;5.144;2023-06-26T12:48:43;101955.20;;;24.70
66403;BMP180;53212;52.112;5.144;2023-06-26T12:51:15;101953.60;;;24.40
66403;BMP180;53212;52.112;5.144;2023-06-26T12:53:41;101959.00;;;24.60
66403;BMP180;53212;52.112;5.144;2023-06-26T12:56:08;101954.40;;;24.60
66403;BMP180;53212;52.112;5.144;2023-06-26T12:58:34;101943.40;;;24.50
66403;BMP180;53212;52.112;5.144;2023-06-26T13:01:06;101945.80;;;24.60
66403;BMP180;53212;52.112;5.144;2023-06-26T13:03:50;101945.20;;;24.40
66403;BMP180;53212;52.112;5.144;2023-06-26T13:06:17;101945.40;;;24.40
66403;BMP180;53212;52.112;5.144;2023-06-26T13:08:42;101953.00;;;24.20
66403;BMP180;53212;52.112;5.144;2023-06-26T13:11:09;101959.00;;;24.10
66403;BMP180;53212;52.112;5.144;2023-06-26T13:13:34;101951.00;;;24.10
66403;BMP180;53212;52.112;5.144;2023-06-26T13:16:00;101955.40;;;24.24
66403;BMP180;53212;52.112;5.144;2023-06-26T13:18:26;101963.40;;;24.20
66403;BMP180;53212;52.112;5.144;2023-06-26T13:20:51;101953.00;;;24.00
66403;BMP180;53212;52.112;5.144;2023-06-26T13:23:17;101952.40;;;23.90
66403;BMP180;53212;52.112;5.144;2023-06-26T13:25:45;101954.60;;;24.04
66403;BMP180;53212;52.112;5.144;2023-06-26T13:28:10;101972.60;;;24.50
66403;BMP180;53212;52.112;5.144;2023-06-26T13:30:36;101958.80;;;24.30
66403;BMP180;53212;52.112;5.144;2023-06-26T13:33:01;101963.40;;;24.40
66403;BMP180;53212;52.112;5.144;2023-06-26T13:35:27;101962.80;;;24.22
66403;BMP180;53212;52.112;5.144;2023-06-26T13:37:52;101961.80;;;24.40
66403;BMP180;53212;52.112;5.144;2023-06-26T13:40:18;101958.20;;;24.50
66403;BMP180;53212;52.112;5.144;2023-06-26T13:42:43;101968.80;;;24.32
66403;BMP180;53212;52.112;5.144;2023-06-26T13:45:10;101965.60;;;24.20
66403;BMP180;53212;52.112;5.144;2023-06-26T13:47:35;101964.00;;;24.20
66403;BMP180;53212;52.112;5.144;2023-06-26T13:50:04;101956.40;;;24.30
66403;BMP180;53212;52.112;5.144;2023-06-26T13:52:31;101956.40;;;24.48
66403;BMP180;53212;52.112;5.144;2023-06-26T13:54:56;101945.40;;;24.76
66403;BMP180;53212;52.112;5.144;2023-06-26T13:57:22;101955.60;;;24.80
66403;BMP180;53212;52.112;5.144;2023-06-26T13:59:48;101967.60;;;24.60
66403;BMP180;53212;52.112;5.144;2023-06-26T14:02:13;101971.60;;;24.60
66403;BMP180;53212;52.112;5.144;2023-06-26T14:04:39;101968.20;;;24.58
66403;BMP180;53212;52.112;5.144;2023-06-26T14:07:05;101967.80;;;24.50
66403;BMP180;53212;52.112;5.144;2023-06-26T14:09:31;101973.60;;;24.60
66403;BMP180;53212;52.112;5.144;2023-06-26T14:11:56;101976.60;;;24.54